Aviation Digital Data Service (ADDS)

Output produced by METARs form (1227 UTC 16 September 2019)
found at http://www.aviationweather.gov/metar/data/
 
KSAV 161153Z 01007KT 10SM SCT250 24/22 A3002 RMK AO2 SLP164 T02390222 10239 20228 51011
KSAV 161126Z 1612/1712 01007KT P6SM FEW200 
     FM161400 01012G17KT P6SM SCT030 
     FM162000 03010KT P6SM FEW040 
     FM170400 36003KT P6SM SKC
       
KSVN 161156Z AUTO 36009KT 10SM CLR 24/22 A2998 RMK AO2 SLP155 T02390218 10250 20237 52009 $
TAF KSVN 161200Z 1612/1718 02009KT 9999 SKC QNH2995INS 
     BECMG 1613/1614 01010G15KT 9999 SCT030 SCT200 QNH2994INS 
     TEMPO 1616/1620 02009KT 4800 -SHRA BKN025 
     BECMG 1623/1624 VRB06KT 9999 SCT100 SCT200 QNH2991INS 
     BECMG 1705/1706 VRB04KT 8000 BR FEW005 QNH2992INS 
     BECMG 1708/1709 03007KT 9999 NSW SCT020 QNH2995INS TX30/1619Z TN23/1711Z
       
KLHW 161156Z AUTO 36006KT 10SM CLR 23/21 A3000 RMK AO2 SLP162 T02330210 10239 20226 52011 $
KTBR 161215Z AUTO 36004KT 10SM CLR 22/21 A3005 RMK AO2 T02240210
KVDI 161215Z AUTO 00000KT 10SM CLR 23/20 A3006 RMK AO2
KJYL 161215Z AUTO 01006KT 23/22 A3006 RMK AO2 T02310218 PWINO
KDBN 161215Z AUTO 00000KT 10SM CLR 22/20 A3009 RMK AO2
KJES 161223Z AUTO 01005KT 10SM CLR 26/21 A3003 RMK AO2
KSSI 161153Z AUTO 34006KT 10SM CLR 24/22 A2998 RMK AO2 SLP153 60000 70003 T02440222 10272 20239 51012
KSSI 161120Z 1612/1712 34006KT P6SM FEW030 
     FM161500 01012G22KT P6SM SCT035 BKN250 
     FM170000 05008KT P6SM FEW250
       
KBQK 161215Z AUTO 34008KT 10SM CLR 24/23 A2999 RMK AO2 T02370226
KAYS 161215Z AUTO 01004KT 10SM CLR 24/21 A3004 RMK AO2 T02360209 TSNO
KNBC 161156Z 36008KT 10SM CLR 24/23 A3001 RMK AO2 SLP162 70004 T02440233 10250 20239 51009
TAF KNBC 1609/1709 32007KT 9999 FEW007 SCT010 QNH2998INS 
     TEMPO 1610/1613 BKN009 
     FM161400 01012G18KT 9999 FEW030 SCT040 QNH2996INS
       
KHXD 161150Z 36010KT 10SM CLR 24/23 A3000